Time;durP1;ratioP1;P1;durP2;ratioP2;P2;SDS_P1;SDS_P2;PMS_P1;PMS_P2;Temp;Humidity;BMP_temperature;BMP_pressure;BME280_temperature;BME280_humidity;BME280_pressure;Samples;Min_cycle;Max_cycle;Signal;HPM_P1;HPM_P2
2022/07/26 00:01:43;;;;;;;;;;;28.10;99.90;;;;;;5103907;28;19911;-75
2022/07/26 00:04:08;;;;;;;;;;;28.00;99.90;;;;;;5105852;28;19962;-73
2022/07/26 00:06:34;;;;;;;;;;;27.80;99.90;;;;;;5105703;28;19986;-73
2022/07/26 00:08:59;;;;;;;;;;;27.70;99.90;;;;;;5102163;28;20171;-72
2022/07/26 00:11:26;;;;;;;;;;;27.60;99.90;;;;;;5101214;28;20084;-73
2022/07/26 00:13:51;;;;;;;;;;;27.60;99.90;;;;;;5079065;28;19912;-73
2022/07/26 00:16:17;;;;;;;;;;;27.60;99.90;;;;;;5096918;28;20072;-73
2022/07/26 00:18:43;;;;;;;;;;;27.70;99.90;;;;;;5096152;28;19912;-73
2022/07/26 00:21:08;;;;;;;;;;;27.60;99.90;;;;;;5098421;28;20284;-73
2022/07/26 00:23:34;;;;;;;;;;;27.70;99.90;;;;;;5081439;28;19912;-72
2022/07/26 00:26:00;;;;;;;;;;;27.70;99.90;;;;;;5102223;28;19920;-73
2022/07/26 00:28:25;;;;;;;;;;;27.80;99.90;;;;;;5115680;27;20245;-72
2022/07/26 00:30:51;;;;;;;;;;;27.80;99.90;;;;;;5109214;27;19923;-72
2022/07/26 00:33:16;;;;;;;;;;;27.80;99.90;;;;;;5091882;28;20253;-74
2022/07/26 00:35:42;;;;;;;;;;;27.80;99.90;;;;;;5091739;28;19955;-73
2022/07/26 00:38:08;;;;;;;;;;;27.60;99.90;;;;;;5093678;27;19912;-71
2022/07/26 00:40:33;;;;;;;;;;;27.40;99.90;;;;;;5100229;27;19938;-72
2022/07/26 00:42:59;;;;;;;;;;;27.20;99.90;;;;;;5083074;27;19916;-72
2022/07/26 00:45:24;;;;;;;;;;;27.10;99.90;;;;;;5095123;27;19912;-72
2022/07/26 00:47:50;;;;;;;;;;;27.10;99.90;;;;;;5097869;27;19977;-72
2022/07/26 00:50:17;;;;;;;;;;;27.20;99.90;;;;;;5098964;28;19923;-73
2022/07/26 00:52:46;;;;;;;;;;;27.20;99.90;;;;;;5100867;28;19916;-73
2022/07/26 00:55:12;;;;;;;;;;;27.20;99.90;;;;;;5082204;28;19920;-73
2022/07/26 00:57:39;;;;;;;;;;;27.20;99.90;;;;;;5099397;27;19915;-74
2022/07/26 01:00:06;;;;;;;;;;;27.20;99.90;;;;;;5100539;27;19918;-73
2022/07/26 01:02:32;;;;;;;;;;;27.40;99.90;;;;;;5109930;27;20289;-74
2022/07/26 01:04:57;;;;;;;;;;;27.50;99.90;;;;;;5127829;27;19911;-72
2022/07/26 01:07:23;;;;;;;;;;;27.50;99.90;;;;;;5126438;27;19908;-72
2022/07/26 01:09:49;;;;;;;;;;;27.50;99.90;;;;;;5111656;28;19961;-74
2022/07/26 01:12:14;;;;;;;;;;;27.50;99.90;;;;;;5111501;28;19912;-74
2022/07/26 01:14:43;;;;;;;;;;;27.60;99.90;;;;;;5103169;27;19919;-73
2022/07/26 01:17:13;;;;;;;;;;;27.50;99.90;;;;;;5097226;27;20343;-74
2022/07/26 01:19:38;;;;;;;;;;;27.50;99.90;;;;;;5098738;27;20455;-74
2022/07/26 01:22:04;;;;;;;;;;;27.40;99.90;;;;;;5100443;27;19915;-74
2022/07/26 01:24:29;;;;;;;;;;;27.40;99.90;;;;;;5101392;27;19953;-73
2022/07/26 01:26:55;;;;;;;;;;;27.50;99.90;;;;;;5100450;27;20383;-74
2022/07/26 01:29:22;;;;;;;;;;;27.50;99.90;;;;;;5099179;27;19982;-73
2022/07/26 01:31:48;;;;;;;;;;;27.40;99.90;;;;;;5099771;28;19994;-73
2022/07/26 01:34:13;;;;;;;;;;;27.50;99.90;;;;;;5080323;28;19915;-73
2022/07/26 01:36:39;;;;;;;;;;;27.50;99.90;;;;;;5097060;28;20439;-72
2022/07/26 01:39:05;;;;;;;;;;;27.50;99.90;;;;;;5097481;28;20269;-72
2022/07/26 01:41:31;;;;;;;;;;;27.50;99.90;;;;;;5097930;28;19916;-71
2022/07/26 01:43:56;;;;;;;;;;;27.50;99.90;;;;;;5097762;28;20069;-73
2022/07/26 01:46:22;;;;;;;;;;;27.50;99.90;;;;;;5095463;28;19920;-73
2022/07/26 01:48:47;;;;;;;;;;;27.50;99.90;;;;;;5096541;28;19935;-75
2022/07/26 01:51:13;;;;;;;;;;;27.40;99.90;;;;;;5098226;28;19923;-76
2022/07/26 01:53:39;;;;;;;;;;;27.40;99.90;;;;;;5098985;28;20292;-73
2022/07/26 01:56:05;;;;;;;;;;;27.20;99.90;;;;;;5114956;28;19912;-71
2022/07/26 01:58:30;;;;;;;;;;;27.10;99.90;;;;;;5136401;28;20288;-72
2022/07/26 02:00:56;;;;;;;;;;;27.10;99.90;;;;;;5139643;28;19931;-72
2022/07/26 02:03:22;;;;;;;;;;;27.10;99.90;;;;;;5122287;28;19911;-72
2022/07/26 02:05:48;;;;;;;;;;;27.00;99.90;;;;;;5115299;28;19915;-71
2022/07/26 02:08:13;;;;;;;;;;;27.00;99.90;;;;;;5111492;28;19919;-72
2022/07/26 02:13:23;;;;;;;;;;;26.90;99.90;;;;;;5099381;28;19918;-72
2022/07/26 02:15:49;;;;;;;;;;;26.90;99.90;;;;;;5096826;28;19916;-72
2022/07/26 02:18:15;;;;;;;;;;;26.90;99.90;;;;;;5101975;28;19921;-72
2022/07/26 02:20:40;;;;;;;;;;;26.90;99.90;;;;;;5098756;28;19912;-72
2022/07/26 02:23:06;;;;;;;;;;;27.00;99.90;;;;;;5103703;28;19911;-72
2022/07/26 02:25:32;;;;;;;;;;;27.00;99.90;;;;;;5107748;28;19914;-72
2022/07/26 02:27:58;;;;;;;;;;;27.00;99.90;;;;;;5125712;27;20234;-72
2022/07/26 02:30:23;;;;;;;;;;;27.00;99.90;;;;;;5083467;28;19967;-73
2022/07/26 02:32:49;;;;;;;;;;;27.10;99.90;;;;;;5094927;28;19912;-72
2022/07/26 02:35:14;;;;;;;;;;;27.00;99.90;;;;;;5096329;28;20001;-72
2022/07/26 02:37:40;;;;;;;;;;;26.90;99.90;;;;;;5098805;27;19984;-71
2022/07/26 02:40:06;;;;;;;;;;;27.00;99.90;;;;;;5118576;27;20261;-71
2022/07/26 02:42:32;;;;;;;;;;;27.00;99.90;;;;;;5120479;27;19915;-72
2022/07/26 02:44:57;;;;;;;;;;;27.00;99.90;;;;;;5126369;27;19927;-71
2022/07/26 02:47:23;;;;;;;;;;;27.10;99.90;;;;;;5082848;28;20443;-72
2022/07/26 02:49:49;;;;;;;;;;;27.10;99.90;;;;;;5084950;28;20385;-72
2022/07/26 02:52:15;;;;;;;;;;;27.10;99.90;;;;;;5102447;28;19980;-72
2022/07/26 02:54:40;;;;;;;;;;;27.10;99.90;;;;;;5093517;28;20397;-72
2022/07/26 02:57:06;;;;;;;;;;;27.10;99.90;;;;;;5105639;27;19915;-73
2022/07/26 02:59:31;;;;;;;;;;;27.10;99.90;;;;;;5100630;28;19912;-72
2022/07/26 03:01:57;;;;;;;;;;;27.10;99.90;;;;;;5119342;27;20056;-72
2022/07/26 03:04:23;;;;;;;;;;;27.20;99.90;;;;;;5130437;27;19911;-72
2022/07/26 03:06:48;;;;;;;;;;;27.20;99.90;;;;;;5125925;27;19911;-73
2022/07/26 03:09:14;;;;;;;;;;;27.20;99.90;;;;;;5114786;28;19908;-71
2022/07/26 03:11:40;;;;;;;;;;;27.20;99.90;;;;;;5114365;28;19912;-71
2022/07/26 03:14:05;;;;;;;;;;;27.20;99.90;;;;;;5113929;28;20417;-71
2022/07/26 03:16:31;;;;;;;;;;;27.10;99.90;;;;;;5106395;27;20075;-70
2022/07/26 03:18:57;;;;;;;;;;;27.10;99.90;;;;;;5097076;27;20392;-70
2022/07/26 03:21:22;;;;;;;;;;;27.10;99.90;;;;;;5101630;27;19912;-71
2022/07/26 03:23:48;;;;;;;;;;;27.10;99.90;;;;;;5094124;28;19912;-72
2022/07/26 03:26:14;;;;;;;;;;;27.00;99.90;;;;;;5093919;28;19912;-73
2022/07/26 03:28:41;;;;;;;;;;;26.90;99.90;;;;;;5096107;28;20337;-72
2022/07/26 03:31:07;;;;;;;;;;;26.90;99.90;;;;;;5094107;27;19915;-72
2022/07/26 03:33:32;;;;;;;;;;;26.70;99.90;;;;;;5117044;27;19965;-72
2022/07/26 03:35:58;;;;;;;;;;;26.60;99.90;;;;;;5131990;27;19985;-70
2022/07/26 03:38:24;;;;;;;;;;;26.60;99.90;;;;;;5101200;27;19908;-71
2022/07/26 03:40:49;;;;;;;;;;;26.60;99.90;;;;;;5092500;28;20007;-71
2022/07/26 03:43:15;;;;;;;;;;;26.60;99.90;;;;;;5093034;28;19908;-70
2022/07/26 03:45:40;;;;;;;;;;;26.50;99.90;;;;;;5092231;28;19912;-71
2022/07/26 03:48:06;;;;;;;;;;;26.50;99.90;;;;;;5094052;28;19912;-73
2022/07/26 03:50:32;;;;;;;;;;;26.50;99.90;;;;;;5080108;28;19918;-71
2022/07/26 03:52:57;;;;;;;;;;;26.50;99.90;;;;;;5101437;27;19915;-73
2022/07/26 03:58:07;;;;;;;;;;;26.50;99.90;;;;;;5101514;27;19938;-73
2022/07/26 04:00:33;;;;;;;;;;;26.60;99.90;;;;;;5103041;27;19912;-73
2022/07/26 04:02:58;;;;;;;;;;;26.70;99.90;;;;;;5101831;27;20308;-73
2022/07/26 04:05:24;;;;;;;;;;;26.80;99.90;;;;;;5097426;27;19915;-71
2022/07/26 04:07:50;;;;;;;;;;;27.00;99.90;;;;;;5112319;27;20366;-72
2022/07/26 04:10:17;;;;;;;;;;;27.10;99.90;;;;;;5116572;27;19937;-71
2022/07/26 04:12:42;;;;;;;;;;;27.10;99.90;;;;;;5127099;27;19907;-72
2022/07/26 04:15:09;;;;;;;;;;;27.10;99.90;;;;;;5119261;27;19915;-73
2022/07/26 04:17:41;;;;;;;;;;;27.10;99.90;;;;;;5120767;27;19912;-71
2022/07/26 04:20:08;;;;;;;;;;;27.20;99.90;;;;;;5131573;27;19907;-72
2022/07/26 04:22:34;;;;;;;;;;;27.20;99.90;;;;;;5120207;27;20389;-72
2022/07/26 04:24:59;;;;;;;;;;;27.30;99.90;;;;;;5088413;28;19997;-72
2022/07/26 04:27:25;;;;;;;;;;;27.20;99.90;;;;;;5091394;28;19908;-72
2022/07/26 04:29:51;;;;;;;;;;;27.20;99.90;;;;;;5117569;27;20426;-72
2022/07/26 04:32:16;;;;;;;;;;;27.10;99.90;;;;;;5123183;27;19915;-71
2022/07/26 04:34:42;;;;;;;;;;;27.00;99.90;;;;;;5125191;27;19990;-71
2022/07/26 04:37:07;;;;;;;;;;;27.00;99.90;;;;;;5132659;27;19912;-72
2022/07/26 04:39:33;;;;;;;;;;;27.00;99.90;;;;;;5112907;28;19954;-72
2022/07/26 04:41:58;;;;;;;;;;;27.10;99.90;;;;;;5100886;28;19916;-72
2022/07/26 04:44:24;;;;;;;;;;;27.10;99.90;;;;;;5099931;28;20056;-74
2022/07/26 04:46:50;;;;;;;;;;;27.20;99.90;;;;;;5111660;27;19917;-71
2022/07/26 04:49:15;;;;;;;;;;;27.20;99.90;;;;;;5109420;27;19918;-71
2022/07/26 04:51:41;;;;;;;;;;;27.20;99.90;;;;;;5098403;27;19943;-73
2022/07/26 04:54:06;;;;;;;;;;;27.30;99.90;;;;;;5103633;27;20023;-72
2022/07/26 04:56:32;;;;;;;;;;;27.30;99.90;;;;;;5113808;27;19912;-71
2022/07/26 04:58:57;;;;;;;;;;;27.40;99.90;;;;;;5080286;27;19919;-72
2022/07/26 05:01:23;;;;;;;;;;;27.40;99.90;;;;;;5120212;27;19966;-70
2022/07/26 05:03:49;;;;;;;;;;;27.40;99.90;;;;;;5110545;28;19951;-71
2022/07/26 05:06:14;;;;;;;;;;;27.30;99.90;;;;;;5117325;27;20444;-70
2022/07/26 05:08:42;;;;;;;;;;;27.40;99.90;;;;;;5113832;27;19936;-71
2022/07/26 05:11:09;;;;;;;;;;;27.50;99.90;;;;;;5116747;27;20045;-71
2022/07/26 05:13:34;;;;;;;;;;;27.50;99.90;;;;;;5102426;28;20514;-71
2022/07/26 05:16:00;;;;;;;;;;;27.60;99.90;;;;;;5111410;27;19919;-72
2022/07/26 05:18:26;;;;;;;;;;;27.70;99.90;;;;;;5106867;27;19911;-72
2022/07/26 05:20:51;;;;;;;;;;;27.70;99.90;;;;;;5099215;27;20378;-72
2022/07/26 05:23:19;;;;;;;;;;;27.80;99.90;;;;;;5096679;28;19924;-72
2022/07/26 05:25:44;;;;;;;;;;;27.90;99.90;;;;;;5098282;27;19912;-72
2022/07/26 05:28:10;;;;;;;;;;;27.90;99.90;;;;;;5098267;27;19919;-71
2022/07/26 05:30:36;;;;;;;;;;;28.10;99.90;;;;;;5105739;27;19915;-73
2022/07/26 05:33:01;;;;;;;;;;;28.10;99.90;;;;;;5099568;27;20095;-70
2022/07/26 05:35:27;;;;;;;;;;;28.20;99.90;;;;;;5100202;28;19994;-71
2022/07/26 05:37:53;;;;;;;;;;;28.20;99.90;;;;;;5126900;27;19907;-72
2022/07/26 05:40:18;;;;;;;;;;;28.20;99.90;;;;;;5116389;27;19923;-72
2022/07/26 05:42:44;;;;;;;;;;;28.20;99.90;;;;;;5084878;28;19916;-71
2022/07/26 05:45:10;;;;;;;;;;;28.20;99.90;;;;;;5099685;28;20015;-71
2022/07/26 05:47:35;;;;;;;;;;;28.30;99.90;;;;;;5112382;28;19911;-71
2022/07/26 05:50:01;;;;;;;;;;;28.30;99.90;;;;;;5100277;28;19912;-71
2022/07/26 05:52:27;;;;;;;;;;;28.30;99.90;;;;;;5105503;28;19916;-72
2022/07/26 05:54:52;;;;;;;;;;;28.30;99.90;;;;;;5109673;28;20343;-72
2022/07/26 05:57:18;;;;;;;;;;;28.40;99.90;;;;;;5116618;28;20351;-72
2022/07/26 05:59:43;;;;;;;;;;;28.30;99.90;;;;;;5112127;28;19960;-72
2022/07/26 06:02:09;;;;;;;;;;;28.40;99.90;;;;;;5115037;28;19966;-72
2022/07/26 06:04:35;;;;;;;;;;;28.30;99.90;;;;;;5106208;27;19918;-72
2022/07/26 06:07:00;;;;;;;;;;;28.00;99.90;;;;;;5114591;27;19912;-70
2022/07/26 06:09:26;;;;;;;;;;;27.40;99.90;;;;;;5122765;27;19927;-72
2022/07/26 06:11:52;;;;;;;;;;;26.60;99.90;;;;;;5112349;28;19923;-71
2022/07/26 06:14:18;;;;;;;;;;;26.10;99.90;;;;;;5102867;27;19948;-72
2022/07/26 06:16:45;;;;;;;;;;;25.70;99.90;;;;;;5127616;27;19953;-73
2022/07/26 06:19:10;;;;;;;;;;;25.20;99.90;;;;;;5101486;28;19912;-72
2022/07/26 06:21:36;;;;;;;;;;;24.60;99.90;;;;;;5108920;27;19918;-72
2022/07/26 06:24:01;;;;;;;;;;;24.00;99.90;;;;;;5106458;27;19916;-74
2022/07/26 06:26:27;;;;;;;;;;;23.30;99.90;;;;;;5118346;27;19925;-73
2022/07/26 06:28:53;;;;;;;;;;;22.80;99.90;;;;;;5115264;27;19911;-74
2022/07/26 06:31:18;;;;;;;;;;;22.40;99.90;;;;;;5109589;28;19919;-73
2022/07/26 06:33:44;;;;;;;;;;;22.10;99.90;;;;;;5115648;28;20049;-75
2022/07/26 06:36:10;;;;;;;;;;;21.80;99.90;;;;;;5111618;27;19943;-76
2022/07/26 06:38:35;;;;;;;;;;;22.00;99.90;;;;;;5103342;28;19912;-74
2022/07/26 06:41:01;;;;;;;;;;;22.30;99.90;;;;;;5107765;27;19916;-77
2022/07/26 06:43:27;;;;;;;;;;;22.60;99.90;;;;;;5087370;28;20277;-75
2022/07/26 06:45:52;;;;;;;;;;;22.80;99.90;;;;;;5108537;28;20281;-74
2022/07/26 06:48:18;;;;;;;;;;;22.90;99.90;;;;;;5118694;27;19912;-76
2022/07/26 06:50:43;;;;;;;;;;;22.70;99.90;;;;;;5123826;27;19916;-77
2022/07/26 06:53:09;;;;;;;;;;;22.70;99.90;;;;;;5121427;27;19967;-75
2022/07/26 06:55:35;;;;;;;;;;;22.80;99.90;;;;;;5135952;27;20015;-72
2022/07/26 06:58:00;;;;;;;;;;;22.90;99.90;;;;;;5128612;27;19949;-71
2022/07/26 07:00:26;;;;;;;;;;;22.60;99.90;;;;;;5104998;28;20305;-70
2022/07/26 07:02:51;;;;;;;;;;;22.50;99.90;;;;;;5101006;28;20078;-72
2022/07/26 07:05:17;;;;;;;;;;;22.60;99.90;;;;;;5107680;28;19991;-72
2022/07/26 07:07:42;;;;;;;;;;;22.80;99.90;;;;;;5097116;28;19952;-71
2022/07/26 07:10:08;;;;;;;;;;;22.90;99.90;;;;;;5113424;28;19916;-71
2022/07/26 07:12:34;;;;;;;;;;;22.80;99.90;;;;;;5112556;28;20438;-72
2022/07/26 07:15:00;;;;;;;;;;;22.80;99.90;;;;;;5099298;27;19918;-72
2022/07/26 07:17:25;;;;;;;;;;;22.80;99.90;;;;;;5128210;27;19977;-73
2022/07/26 07:19:51;;;;;;;;;;;22.90;99.90;;;;;;5119428;27;19957;-73
2022/07/26 07:22:16;;;;;;;;;;;22.70;99.90;;;;;;5104795;27;20003;-72
2022/07/26 07:24:43;;;;;;;;;;;22.80;99.90;;;;;;5106612;28;19911;-72
2022/07/26 07:27:09;;;;;;;;;;;22.70;99.90;;;;;;5116029;27;19915;-72
2022/07/26 07:29:34;;;;;;;;;;;22.60;99.90;;;;;;5110063;28;19923;-73
2022/07/26 07:32:00;;;;;;;;;;;22.60;99.90;;;;;;5110101;28;19912;-73
2022/07/26 07:34:26;;;;;;;;;;;22.60;99.90;;;;;;5095288;28;19919;-73
2022/07/26 07:36:51;;;;;;;;;;;22.50;99.90;;;;;;5093603;28;19974;-70
2022/07/26 07:39:17;;;;;;;;;;;22.50;99.90;;;;;;5112528;27;20471;-71
2022/07/26 07:41:46;;;;;;;;;;;22.40;99.90;;;;;;5112260;27;19923;-71
2022/07/26 07:44:12;;;;;;;;;;;22.40;99.90;;;;;;5125240;27;19915;-69
2022/07/26 07:46:37;;;;;;;;;;;22.50;99.90;;;;;;5099870;28;20007;-70
2022/07/26 07:49:03;;;;;;;;;;;22.60;99.90;;;;;;5082084;27;19926;-72
2022/07/26 07:51:29;;;;;;;;;;;22.80;99.90;;;;;;5101634;27;19920;-72
2022/07/26 07:53:54;;;;;;;;;;;23.00;99.90;;;;;;5103023;28;19912;-69
2022/07/26 07:56:20;;;;;;;;;;;22.90;99.90;;;;;;5112191;28;19950;-68
2022/07/26 07:58:46;;;;;;;;;;;22.80;99.90;;;;;;5113148;28;19951;-68
2022/07/26 08:01:11;;;;;;;;;;;22.80;99.90;;;;;;5106856;28;19947;-71
2022/07/26 08:03:37;;;;;;;;;;;22.90;99.90;;;;;;5108930;28;19911;-69
2022/07/26 08:06:04;;;;;;;;;;;23.20;99.90;;;;;;5112801;27;19911;-70
2022/07/26 08:08:30;;;;;;;;;;;23.30;99.90;;;;;;5110265;27;19989;-70
2022/07/26 08:10:55;;;;;;;;;;;23.20;99.90;;;;;;5102064;27;20312;-71
2022/07/26 08:13:21;;;;;;;;;;;23.00;99.90;;;;;;5112051;27;19911;-69
2022/07/26 08:15:47;;;;;;;;;;;23.10;99.90;;;;;;5090131;28;19920;-69
2022/07/26 08:18:13;;;;;;;;;;;23.00;99.90;;;;;;5104959;28;19995;-70
2022/07/26 08:20:38;;;;;;;;;;;23.10;99.90;;;;;;5107164;28;20010;-70
2022/07/26 08:23:04;;;;;;;;;;;23.00;99.90;;;;;;5105520;27;19918;-70
2022/07/26 08:25:30;;;;;;;;;;;23.00;99.90;;;;;;5105189;28;19912;-68
2022/07/26 08:27:55;;;;;;;;;;;22.90;99.90;;;;;;5113183;27;19938;-68
2022/07/26 08:30:21;;;;;;;;;;;23.10;99.90;;;;;;5115837;27;19977;-70
2022/07/26 08:32:46;;;;;;;;;;;23.10;99.90;;;;;;5112248;28;19965;-70
2022/07/26 08:35:12;;;;;;;;;;;22.90;99.90;;;;;;5110666;28;20413;-69
2022/07/26 08:37:38;;;;;;;;;;;23.10;99.90;;;;;;5112399;28;19916;-69
2022/07/26 08:40:04;;;;;;;;;;;23.20;99.90;;;;;;5104917;27;19919;-69
2022/07/26 08:42:30;;;;;;;;;;;23.00;99.90;;;;;;5107516;28;19919;-70
2022/07/26 08:44:56;;;;;;;;;;;23.10;99.90;;;;;;5102089;27;19913;-69
2022/07/26 08:47:22;;;;;;;;;;;23.30;99.90;;;;;;5114338;27;19930;-69
2022/07/26 08:49:47;;;;;;;;;;;23.40;99.90;;;;;;5123796;27;19923;-71
2022/07/26 08:52:14;;;;;;;;;;;23.40;99.90;;;;;;5112869;28;19923;-71
2022/07/26 08:54:43;;;;;;;;;;;23.30;99.90;;;;;;5090407;28;19916;-70
2022/07/26 08:57:09;;;;;;;;;;;23.10;99.90;;;;;;5104535;27;19920;-71
2022/07/26 08:59:34;;;;;;;;;;;23.00;99.90;;;;;;5111746;28;19961;-71
2022/07/26 09:02:02;;;;;;;;;;;22.90;99.90;;;;;;5110719;28;19907;-69
2022/07/26 09:04:31;;;;;;;;;;;22.90;99.90;;;;;;5096164;27;19915;-71
2022/07/26 09:07:05;;;;;;;;;;;22.90;99.90;;;;;;5132380;27;20288;-70
2022/07/26 09:09:35;;;;;;;;;;;22.90;99.90;;;;;;5132322;27;19907;-68
2022/07/26 09:12:14;;;;;;;;;;;23.00;99.90;;;;;;5132162;27;19911;-70
2022/07/26 09:14:40;;;;;;;;;;;23.00;99.90;;;;;;5109263;28;19920;-70
2022/07/26 09:17:06;;;;;;;;;;;23.00;99.90;;;;;;5110850;28;19908;-71
2022/07/26 09:19:33;;;;;;;;;;;22.90;99.90;;;;;;5110132;27;19948;-71
2022/07/26 09:22:05;;;;;;;;;;;22.90;99.90;;;;;;5113484;27;19912;-71
2022/07/26 09:24:31;;;;;;;;;;;23.00;99.90;;;;;;5132220;27;19946;-70
2022/07/26 09:26:58;;;;;;;;;;;23.00;99.90;;;;;;5129264;27;19907;-70
2022/07/26 09:29:24;;;;;;;;;;;23.00;99.90;;;;;;5090230;28;19951;-70
2022/07/26 09:31:49;;;;;;;;;;;23.20;99.90;;;;;;5100899;28;19974;-70
2022/07/26 09:34:24;;;;;;;;;;;23.40;99.90;;;;;;5111112;28;20392;-70
2022/07/26 09:36:51;;;;;;;;;;;23.60;99.90;;;;;;5107325;28;19907;-70
2022/07/26 09:39:17;;;;;;;;;;;23.50;99.90;;;;;;5088514;28;19962;-70
2022/07/26 09:41:42;;;;;;;;;;;23.60;99.90;;;;;;5103987;28;19955;-72
2022/07/26 09:44:21;;;;;;;;;;;23.70;99.90;;;;;;5106856;28;19964;-71
2022/07/26 09:46:55;;;;;;;;;;;23.70;99.90;;;;;;5086177;28;20449;-76
2022/07/26 09:49:21;;;;;;;;;;;23.60;99.90;;;;;;5102464;28;19908;-73
2022/07/26 09:51:47;;;;;;;;;;;23.60;99.90;;;;;;5088940;28;20326;-72
2022/07/26 09:54:30;;;;;;;;;;;23.70;99.90;;;;;;5111053;28;19934;-70
2022/07/26 09:56:56;;;;;;;;;;;23.80;99.90;;;;;;5110980;28;19916;-73
2022/07/26 09:59:23;;;;;;;;;;;23.90;99.90;;;;;;5110851;28;20409;-71
2022/07/26 10:01:49;;;;;;;;;;;24.00;99.90;;;;;;5105884;28;19907;-69
2022/07/26 10:09:56;;;;;;;;;;;24.20;99.90;;;;;;5108154;27;19922;-72
2022/07/26 10:12:24;;;;;;;;;;;24.40;99.90;;;;;;5104098;28;19918;-70
2022/07/26 10:14:50;;;;;;;;;;;24.60;99.90;;;;;;5105812;28;19911;-69
2022/07/26 10:17:28;;;;;;;;;;;24.80;99.90;;;;;;5107198;28;20015;-68
2022/07/26 10:19:54;;;;;;;;;;;24.90;99.90;;;;;;5108700;28;19912;-69
2022/07/26 10:22:29;;;;;;;;;;;24.80;99.90;;;;;;5100679;28;19947;-70
2022/07/26 10:24:56;;;;;;;;;;;24.80;99.90;;;;;;5092394;28;19913;-71
2022/07/26 10:27:36;;;;;;;;;;;24.80;99.90;;;;;;5104444;28;19918;-68
2022/07/26 10:30:14;;;;;;;;;;;24.80;99.90;;;;;;5109079;28;19915;-74
2022/07/26 10:32:42;;;;;;;;;;;24.90;99.90;;;;;;5116266;28;20056;-68
2022/07/26 10:35:26;;;;;;;;;;;25.00;99.90;;;;;;5108214;28;20325;-68
2022/07/26 10:38:11;;;;;;;;;;;25.10;99.90;;;;;;5106077;28;20041;-69
2022/07/26 10:40:38;;;;;;;;;;;25.00;99.90;;;;;;5095208;28;20023;-67
2022/07/26 10:43:11;;;;;;;;;;;25.20;99.90;;;;;;5103673;28;19935;-66
2022/07/26 10:45:37;;;;;;;;;;;25.20;99.90;;;;;;5100131;28;20378;-66
2022/07/26 10:48:19;;;;;;;;;;;25.00;99.90;;;;;;5102240;28;19930;-66
2022/07/26 10:50:49;;;;;;;;;;;25.20;99.90;;;;;;5109793;28;19962;-65
2022/07/26 10:53:19;;;;;;;;;;;25.10;99.90;;;;;;5109005;28;19951;-68
2022/07/26 10:55:49;;;;;;;;;;;25.20;99.90;;;;;;5097426;28;20129;-67
2022/07/26 10:58:15;;;;;;;;;;;25.10;99.90;;;;;;5096122;28;19912;-67
2022/07/26 11:00:53;;;;;;;;;;;25.30;99.90;;;;;;5102743;28;20393;-66
2022/07/26 11:03:18;;;;;;;;;;;25.20;99.90;;;;;;5093843;28;19912;-66
2022/07/26 11:05:44;;;;;;;;;;;24.90;99.90;;;;;;5093565;28;19916;-67
2022/07/26 11:08:12;;;;;;;;;;;25.00;99.90;;;;;;5104815;28;19953;-67
2022/07/26 11:10:41;;;;;;;;;;;25.30;99.90;;;;;;5109065;28;19931;-68
2022/07/26 11:13:09;;;;;;;;;;;25.50;99.90;;;;;;5102190;28;20378;-68
2022/07/26 11:15:35;;;;;;;;;;;25.60;99.90;;;;;;5114385;28;20383;-68
2022/07/26 11:18:05;;;;;;;;;;;25.80;99.90;;;;;;5101884;28;19912;-67
2022/07/26 11:20:30;;;;;;;;;;;25.90;99.90;;;;;;5099069;28;19959;-67
2022/07/26 11:22:56;;;;;;;;;;;25.90;99.90;;;;;;5100137;28;19956;-68
2022/07/26 11:25:22;;;;;;;;;;;26.00;99.90;;;;;;5107214;28;20035;-67
2022/07/26 11:28:03;;;;;;;;;;;26.00;99.90;;;;;;5095788;28;19922;-66
2022/07/26 11:30:30;;;;;;;;;;;25.90;99.90;;;;;;5092481;28;19935;-66
2022/07/26 11:32:59;;;;;;;;;;;26.00;99.90;;;;;;5092738;28;19913;-66
2022/07/26 11:35:25;;;;;;;;;;;25.90;99.90;;;;;;5088351;28;19912;-66
2022/07/26 11:37:52;;;;;;;;;;;26.00;99.90;;;;;;5086511;28;19912;-74
2022/07/26 11:40:18;;;;;;;;;;;26.30;99.90;;;;;;5095484;28;19923;-71
2022/07/26 11:42:44;;;;;;;;;;;26.50;99.90;;;;;;5090055;28;20007;-72
2022/07/26 11:45:10;;;;;;;;;;;26.60;99.90;;;;;;5092183;28;19963;-71
2022/07/26 11:47:35;;;;;;;;;;;26.80;99.90;;;;;;5096746;28;19958;-72
2022/07/26 11:50:05;;;;;;;;;;;26.70;99.90;;;;;;5096739;28;19912;-74
2022/07/26 11:52:31;;;;;;;;;;;27.00;99.90;;;;;;5099721;28;19957;-71
2022/07/26 11:54:56;;;;;;;;;;;27.20;99.90;;;;;;5085743;28;19912;-70
2022/07/26 11:57:26;;;;;;;;;;;27.30;99.90;;;;;;5091024;28;19912;-71
2022/07/26 11:59:52;;;;;;;;;;;27.40;99.90;;;;;;5088741;28;19912;-71
2022/07/26 12:02:19;;;;;;;;;;;27.50;99.90;;;;;;5083507;28;19923;-71
2022/07/26 12:04:44;;;;;;;;;;;27.60;99.90;;;;;;5090663;28;19973;-71
2022/07/26 12:07:11;;;;;;;;;;;27.70;99.90;;;;;;5086646;28;19916;-72
2022/07/26 12:09:41;;;;;;;;;;;27.80;99.90;;;;;;5095515;28;19923;-70
2022/07/26 12:12:08;;;;;;;;;;;27.80;99.90;;;;;;5093071;28;19955;-70
2022/07/26 12:14:38;;;;;;;;;;;27.80;99.90;;;;;;5089017;28;19991;-74
2022/07/26 12:17:13;;;;;;;;;;;27.80;99.90;;;;;;5084738;28;20179;-73
2022/07/26 12:19:40;;;;;;;;;;;27.80;99.90;;;;;;5099440;28;20015;-71
2022/07/26 12:22:13;;;;;;;;;;;27.80;99.90;;;;;;5090170;28;19919;-71
2022/07/26 12:24:50;;;;;;;;;;;27.80;99.90;;;;;;5097305;28;19916;-71
2022/07/26 12:27:18;;;;;;;;;;;27.90;99.90;;;;;;5085269;28;20306;-72
2022/07/26 12:29:45;;;;;;;;;;;28.00;99.90;;;;;;5087210;28;19920;-73
2022/07/26 12:32:12;;;;;;;;;;;27.90;99.90;;;;;;5086654;28;19912;-71
2022/07/26 12:34:39;;;;;;;;;;;27.90;99.90;;;;;;5081025;28;19935;-76
2022/07/26 12:37:05;;;;;;;;;;;28.10;99.90;;;;;;5086936;28;19920;-72
2022/07/26 12:39:31;;;;;;;;;;;28.30;99.90;;;;;;5080400;28;20377;-72
2022/07/26 12:41:56;;;;;;;;;;;28.50;99.90;;;;;;5086984;28;19919;-71
2022/07/26 12:44:22;;;;;;;;;;;28.50;99.90;;;;;;5086129;28;19963;-74
2022/07/26 12:46:47;;;;;;;;;;;28.40;99.90;;;;;;5086574;28;19914;-71
2022/07/26 12:49:13;;;;;;;;;;;28.40;99.90;;;;;;5093149;28;19916;-72
2022/07/26 12:51:39;;;;;;;;;;;28.30;99.90;;;;;;5087749;28;19949;-72
2022/07/26 12:54:05;;;;;;;;;;;28.40;99.90;;;;;;5086111;28;19999;-72
2022/07/26 12:56:31;;;;;;;;;;;28.60;99.90;;;;;;5083817;28;20362;-73
2022/07/26 12:58:59;;;;;;;;;;;28.70;99.90;;;;;;5083015;28;19912;-70
2022/07/26 13:01:25;;;;;;;;;;;28.80;99.90;;;;;;5092252;28;19916;-72
2022/07/26 13:03:51;;;;;;;;;;;29.00;99.90;;;;;;5083340;28;19915;-71
2022/07/26 13:06:17;;;;;;;;;;;29.10;99.90;;;;;;5082194;28;20003;-72
2022/07/26 13:08:42;;;;;;;;;;;29.10;99.90;;;;;;5076856;28;20595;-72
2022/07/26 13:11:09;;;;;;;;;;;29.10;99.90;;;;;;5082944;28;19912;-72
2022/07/26 13:13:34;;;;;;;;;;;29.20;99.90;;;;;;5088571;28;19924;-72
2022/07/26 13:16:00;;;;;;;;;;;29.30;99.90;;;;;;5088611;28;20042;-74
2022/07/26 13:18:25;;;;;;;;;;;29.50;99.90;;;;;;5077258;28;20157;-73
2022/07/26 13:20:51;;;;;;;;;;;29.70;99.90;;;;;;5090208;28;19915;-72
2022/07/26 13:23:17;;;;;;;;;;;29.80;99.90;;;;;;5084327;28;19920;-71
2022/07/26 13:25:42;;;;;;;;;;;29.90;99.90;;;;;;5086953;28;19962;-72
2022/07/26 13:28:08;;;;;;;;;;;30.00;99.90;;;;;;5092423;28;19912;-72
2022/07/26 13:30:38;;;;;;;;;;;30.10;99.90;;;;;;5095568;28;19958;-74
2022/07/26 13:33:03;;;;;;;;;;;30.10;99.90;;;;;;5085618;28;19920;-71
2022/07/26 13:35:29;;;;;;;;;;;30.20;99.90;;;;;;5090467;28;19912;-72
2022/07/26 13:37:55;;;;;;;;;;;30.10;99.90;;;;;;5092157;28;19951;-72
2022/07/26 13:40:20;;;;;;;;;;;29.90;99.90;;;;;;5100823;28;19912;-71
2022/07/26 13:42:48;;;;;;;;;;;30.10;99.90;;;;;;5105245;28;19916;-70
2022/07/26 13:45:14;;;;;;;;;;;30.10;99.90;;;;;;5102802;28;19927;-71
2022/07/26 13:47:40;;;;;;;;;;;30.20;99.90;;;;;;5099314;28;19921;-73
2022/07/26 13:50:07;;;;;;;;;;;30.10;99.90;;;;;;5104345;28;19919;-71
2022/07/26 13:52:33;;;;;;;;;;;30.10;99.90;;;;;;5102812;28;19927;-72
2022/07/26 13:54:58;;;;;;;;;;;30.00;99.90;;;;;;5097943;28;19912;-70
2022/07/26 13:57:24;;;;;;;;;;;29.90;99.90;;;;;;5095250;28;19912;-71
2022/07/26 13:59:49;;;;;;;;;;;29.90;99.90;;;;;;5085110;28;19920;-69
2022/07/26 14:02:15;;;;;;;;;;;30.00;99.90;;;;;;5088936;28;19916;-68
2022/07/26 14:04:41;;;;;;;;;;;30.10;99.90;;;;;;5087130;28;19912;-70
2022/07/26 14:07:07;;;;;;;;;;;30.10;99.90;;;;;;5082550;28;19916;-69
2022/07/26 14:09:32;;;;;;;;;;;30.30;99.90;;;;;;5086093;28;20006;-69
2022/07/26 14:11:58;;;;;;;;;;;30.40;99.90;;;;;;5076764;28;20323;-70
2022/07/26 14:14:23;;;;;;;;;;;30.30;99.90;;;;;;5079349;28;19916;-70
2022/07/26 14:16:49;;;;;;;;;;;30.20;99.90;;;;;;5086681;28;19912;-70
2022/07/26 14:19:15;;;;;;;;;;;30.40;99.90;;;;;;5085223;28;20353;-69
2022/07/26 14:21:41;;;;;;;;;;;30.20;99.90;;;;;;5089607;28;19923;-71
2022/07/26 14:24:06;;;;;;;;;;;30.10;99.90;;;;;;5083048;28;19920;-70